Time;durP1;ratioP1;P1;durP2;ratioP2;P2;SDS_P1;SDS_P2;PMS_P1;PMS_P2;Temp;Humidity;BMP_temperature;BMP_pressure;BME280_temperature;BME280_humidity;BME280_pressure;Samples;Min_cycle;Max_cycle;Signal;HPM_P1;HPM_P2
2021/07/11 00:00:35;;;;;;;;;;;;;;;29.51;37.54;97171.88;5051521;28;1456;-51
2021/07/11 00:03:01;;;;;;;;;;;;;;;29.54;37.69;97173.38;5048176;28;1528;-50
2021/07/11 00:05:26;;;;;;;;;;;;;;;29.46;37.50;97179.41;5051245;28;1616;-50
2021/07/11 00:07:51;;;;;;;;;;;;;;;29.55;37.48;97183.03;5047238;28;1626;-51
2021/07/11 00:10:16;;;;;;;;;;;;;;;29.40;37.77;97180.88;5050413;28;1595;-50
2021/07/11 00:12:42;;;;;;;;;;;;;;;29.45;37.51;97180.41;5049370;28;1971;-50
2021/07/11 00:15:08;;;;;;;;;;;;;;;29.36;37.81;97179.53;5049976;28;1287;-50
2021/07/11 00:17:33;;;;;;;;;;;;;;;29.51;37.43;97182.50;5052807;28;1165;-50
2021/07/11 00:19:59;;;;;;;;;;;;;;;29.41;37.72;97176.41;5051009;28;1597;-51
2021/07/11 00:22:24;;;;;;;;;;;;;;;29.48;37.76;97180.94;5049699;28;1274;-51
2021/07/11 00:24:50;;;;;;;;;;;;;;;29.55;37.53;97181.19;5049245;28;1627;-50
2021/07/11 00:27:16;;;;;;;;;;;;;;;29.47;37.55;97175.81;5049404;28;1476;-51
2021/07/11 00:29:41;;;;;;;;;;;;;;;29.48;37.67;97182.78;5052532;28;1256;-50
2021/07/11 00:32:06;;;;;;;;;;;;;;;29.48;37.81;97175.63;5047752;28;1906;-50
2021/07/11 00:34:31;;;;;;;;;;;;;;;29.51;37.68;97173.69;5050002;28;1018;-51
2021/07/11 00:36:57;;;;;;;;;;;;;;;29.57;37.36;97178.38;5046360;28;1561;-51
2021/07/11 00:39:22;;;;;;;;;;;;;;;29.54;37.37;97171.53;5049719;28;1597;-51
2021/07/11 00:41:47;;;;;;;;;;;;;;;29.45;37.56;97177.75;5047075;28;1391;-51
2021/07/11 00:44:12;;;;;;;;;;;;;;;29.47;37.75;97181.13;5048400;28;1357;-51
2021/07/11 00:46:37;;;;;;;;;;;;;;;29.41;37.61;97182.56;5048342;28;1323;-49
2021/07/11 00:49:03;;;;;;;;;;;;;;;29.48;37.36;97191.59;5049427;28;1617;-50
2021/07/11 00:51:28;;;;;;;;;;;;;;;29.50;37.45;97202.06;5030940;28;1977;-51
2021/07/11 00:53:53;;;;;;;;;;;;;;;29.57;37.30;97203.13;5046653;28;1583;-50
2021/07/11 00:56:19;;;;;;;;;;;;;;;29.57;37.55;97203.13;5050363;28;1535;-51
2021/07/11 00:58:44;;;;;;;;;;;;;;;29.60;37.25;97199.31;5046555;28;1322;-50
2021/07/11 01:01:09;;;;;;;;;;;;;;;29.52;37.23;97188.63;5045655;28;1353;-50
2021/07/11 01:03:34;;;;;;;;;;;;;;;29.53;37.44;97182.31;5026558;28;1679;-50
2021/07/11 01:06:00;;;;;;;;;;;;;;;29.51;37.53;97190.47;5049540;28;1545;-51
2021/07/11 01:08:34;;;;;;;;;;;;;;;29.60;37.18;97239.19;5031032;28;1459;-50
2021/07/11 01:11:06;;;;;;;;;;;;;;;29.41;37.68;97240.16;5049679;28;2067;-50
2021/07/11 01:13:31;;;;;;;;;;;;;;;29.56;37.39;97221.91;5049081;28;1439;-50
2021/07/11 01:15:56;;;;;;;;;;;;;;;29.58;37.20;97230.53;5044696;28;1240;-51
2021/07/11 01:18:22;;;;;;;;;;;;;;;29.59;37.14;97248.16;5031214;28;1675;-50
2021/07/11 01:20:51;;;;;;;;;;;;;;;29.59;37.48;97241.00;5030180;28;1517;-51
2021/07/11 01:23:26;;;;;;;;;;;;;;;29.56;37.20;97254.63;5031958;28;1189;-51
2021/07/11 01:25:51;;;;;;;;;;;;;;;29.57;37.31;97250.13;5045704;28;2026;-50
2021/07/11 01:28:17;;;;;;;;;;;;;;;29.58;37.20;97257.94;5032528;28;1371;-51
2021/07/11 01:30:42;;;;;;;;;;;;;;;29.48;37.34;97268.63;5047126;28;2202;-50
2021/07/11 01:33:08;;;;;;;;;;;;;;;29.58;37.48;97259.75;5048798;28;1616;-50
2021/07/11 01:35:33;;;;;;;;;;;;;;;29.57;37.30;97264.25;5030866;28;1536;-50
2021/07/11 01:37:59;;;;;;;;;;;;;;;29.85;36.77;97267.59;4982515;28;1193;-51
2021/07/11 01:40:24;;;;;;;;;;;;;;;29.62;37.05;97269.09;5029524;28;1572;-49
2021/07/11 01:42:51;;;;;;;;;;;;;;;29.59;37.08;97266.75;5030120;28;1366;-50
2021/07/11 01:45:16;;;;;;;;;;;;;;;29.60;37.30;97276.38;5029925;28;1314;-50
2021/07/11 01:47:41;;;;;;;;;;;;;;;29.62;37.18;97279.72;5041276;28;1599;-49
2021/07/11 01:50:07;;;;;;;;;;;;;;;29.50;37.48;97280.97;5044113;28;1537;-50
2021/07/11 01:52:32;;;;;;;;;;;;;;;29.57;37.40;97285.50;5040199;28;1915;-50
2021/07/11 01:54:57;;;;;;;;;;;;;;;29.51;37.23;97277.31;5047599;28;1588;-51
2021/07/11 01:57:22;;;;;;;;;;;;;;;29.63;37.31;97284.91;5030619;28;1248;-49
2021/07/11 01:59:47;;;;;;;;;;;;;;;29.56;37.22;97278.53;5046476;28;1412;-50
2021/07/11 02:02:13;;;;;;;;;;;;;;;29.57;37.13;97279.34;5048356;28;1578;-50
2021/07/11 02:04:38;;;;;;;;;;;;;;;29.55;37.54;97282.19;5045968;28;1459;-50
2021/07/11 02:07:03;;;;;;;;;;;;;;;29.58;37.17;97276.53;5041798;28;1566;-50
2021/07/11 02:09:28;;;;;;;;;;;;;;;29.56;37.47;97275.88;5047496;28;1573;-50
2021/07/11 02:11:55;;;;;;;;;;;;;;;29.55;37.57;97281.34;5047905;28;1906;-51
2021/07/11 02:14:21;;;;;;;;;;;;;;;29.56;37.37;97281.19;5046887;28;1824;-50
2021/07/11 02:16:57;;;;;;;;;;;;;;;29.57;37.18;97280.19;5028959;28;1642;-50
2021/07/11 02:19:22;;;;;;;;;;;;;;;29.51;37.40;97278.13;5045435;28;1471;-51
2021/07/11 02:21:47;;;;;;;;;;;;;;;29.56;37.20;97286.50;5026696;28;1655;-51
2021/07/11 02:24:13;;;;;;;;;;;;;;;29.54;37.52;97288.44;5045370;28;1541;-50
2021/07/11 02:26:38;;;;;;;;;;;;;;;29.52;37.45;97292.25;5047458;28;1650;-51
2021/07/11 02:29:04;;;;;;;;;;;;;;;29.53;37.33;97285.94;5047955;28;1193;-51
2021/07/11 02:31:29;;;;;;;;;;;;;;;29.56;37.22;97283.84;5047428;28;1965;-50
2021/07/11 02:33:55;;;;;;;;;;;;;;;29.53;37.16;97281.47;5027539;28;1560;-50
2021/07/11 02:36:21;;;;;;;;;;;;;;;29.55;37.25;97290.16;5048899;28;1385;-50
2021/07/11 02:38:49;;;;;;;;;;;;;;;29.53;37.35;97292.09;5045393;28;1601;-50
2021/07/11 02:41:14;;;;;;;;;;;;;;;29.55;37.22;97289.31;5047419;28;1271;-50
2021/07/11 02:43:40;;;;;;;;;;;;;;;29.48;37.31;97289.88;5028424;28;1240;-51
2021/07/11 02:46:06;;;;;;;;;;;;;;;29.55;37.07;97300.78;5029198;28;1344;-50
2021/07/11 02:48:31;;;;;;;;;;;;;;;29.47;37.30;97298.00;5028172;28;1655;-50
2021/07/11 02:50:56;;;;;;;;;;;;;;;29.47;37.31;97305.97;5027602;28;1975;-51
2021/07/11 02:53:21;;;;;;;;;;;;;;;29.51;37.43;97304.72;5046330;28;1305;-51
2021/07/11 02:55:47;;;;;;;;;;;;;;;29.47;37.61;97313.97;5047294;28;1830;-50
2021/07/11 02:58:14;;;;;;;;;;;;;;;29.53;37.30;97318.66;5027022;28;1449;-50
2021/07/11 03:00:40;;;;;;;;;;;;;;;29.56;37.32;97318.38;5029505;28;1157;-51
2021/07/11 03:03:05;;;;;;;;;;;;;;;29.49;37.40;97319.94;5048315;23;2006;-51
2021/07/11 03:05:30;;;;;;;;;;;;;;;29.53;37.29;97320.50;5050186;28;1603;-51
2021/07/11 03:07:56;;;;;;;;;;;;;;;29.55;37.41;97327.34;5051275;28;1085;-50
2021/07/11 03:10:21;;;;;;;;;;;;;;;29.54;37.35;97320.34;5069408;28;1627;-49
2021/07/11 03:12:50;;;;;;;;;;;;;;;29.52;37.35;97319.66;5051631;28;1906;-51
2021/07/11 03:15:16;;;;;;;;;;;;;;;29.49;37.52;97319.94;5032012;28;1129;-51
2021/07/11 03:17:41;;;;;;;;;;;;;;;29.57;37.06;97320.06;5030245;28;1565;-51
2021/07/11 03:20:07;;;;;;;;;;;;;;;29.52;37.51;97330.28;5032001;28;1177;-49
2021/07/11 03:22:32;;;;;;;;;;;;;;;29.42;37.40;97333.00;5048856;28;1487;-51
2021/07/11 03:24:58;;;;;;;;;;;;;;;29.52;37.27;97332.94;5047517;28;1496;-50
2021/07/11 03:27:23;;;;;;;;;;;;;;;29.54;37.38;97333.63;5048765;28;1309;-51
2021/07/11 03:30:01;;;;;;;;;;;;;;;29.54;37.46;97338.94;5033718;28;1026;-51
2021/07/11 03:32:27;;;;;;;;;;;;;;;29.53;37.34;97339.09;5034914;28;1989;-51
2021/07/11 03:34:52;;;;;;;;;;;;;;;29.48;37.28;97345.69;5053594;28;1240;-51
2021/07/11 03:37:17;;;;;;;;;;;;;;;29.45;37.26;97359.25;5036030;28;1153;-50
2021/07/11 03:39:44;;;;;;;;;;;;;;;29.37;37.52;97355.69;5033942;28;1707;-50
2021/07/11 03:42:09;;;;;;;;;;;;;;;29.55;37.21;97359.25;5053595;28;1371;-51
2021/07/11 03:44:34;;;;;;;;;;;;;;;29.47;37.16;97361.78;5034231;28;1200;-50
2021/07/11 03:47:00;;;;;;;;;;;;;;;29.52;37.52;97362.19;5051664;28;1523;-50
2021/07/11 03:49:25;;;;;;;;;;;;;;;29.51;37.38;97371.13;5052356;28;1650;-51
2021/07/11 03:51:50;;;;;;;;;;;;;;;29.53;37.04;97370.97;5050990;28;1902;-50
2021/07/11 03:54:15;;;;;;;;;;;;;;;29.53;37.45;97376.28;5033993;28;1588;-49
2021/07/11 03:56:41;;;;;;;;;;;;;;;29.54;37.01;97375.31;5034827;28;1259;-50
2021/07/11 03:59:07;;;;;;;;;;;;;;;29.53;37.47;97373.63;5034052;28;1389;-50
2021/07/11 04:01:32;;;;;;;;;;;;;;;29.50;37.05;97373.94;5035167;28;1383;-49
2021/07/11 04:03:58;;;;;;;;;;;;;;;29.50;37.27;97376.59;5051345;28;1566;-51
2021/07/11 04:06:24;;;;;;;;;;;;;;;29.44;37.23;97384.16;5051155;28;1611;-50
2021/07/11 04:08:49;;;;;;;;;;;;;;;29.48;37.28;97369.59;5050936;28;1520;-51
2021/07/11 04:11:15;;;;;;;;;;;;;;;29.55;37.03;97367.22;5052997;28;1906;-50
2021/07/11 04:13:40;;;;;;;;;;;;;;;29.57;36.95;97370.53;5051151;28;1475;-50
2021/07/11 04:16:06;;;;;;;;;;;;;;;29.46;37.44;97370.72;5052627;28;1172;-50
2021/07/11 04:18:36;;;;;;;;;;;;;;;29.48;37.09;97364.28;5051145;28;1710;-51
2021/07/11 04:21:01;;;;;;;;;;;;;;;29.40;37.25;97364.19;5051404;28;1348;-50
2021/07/11 04:23:28;;;;;;;;;;;;;;;29.54;37.17;97362.03;5033754;28;1265;-51
2021/07/11 04:25:53;;;;;;;;;;;;;;;29.60;36.92;97361.44;5032689;28;1608;-50
2021/07/11 04:28:19;;;;;;;;;;;;;;;29.56;37.09;97358.25;5033697;28;1207;-51
2021/07/11 04:30:44;;;;;;;;;;;;;;;29.54;37.01;97349.56;5033196;28;1330;-50
2021/07/11 04:33:10;;;;;;;;;;;;;;;29.55;37.08;97339.81;5033295;28;1894;-49
2021/07/11 04:35:36;;;;;;;;;;;;;;;29.48;37.22;97334.22;5051682;28;1258;-51
2021/07/11 04:38:01;;;;;;;;;;;;;;;29.48;37.35;97327.09;5052787;28;1200;-50
2021/07/11 04:40:26;;;;;;;;;;;;;;;29.52;37.06;97324.97;5051086;28;1548;-50
2021/07/11 04:42:51;;;;;;;;;;;;;;;29.54;37.21;97320.34;5050013;28;1304;-51
2021/07/11 04:45:17;;;;;;;;;;;;;;;29.56;36.96;97328.19;5051675;28;1116;-50
2021/07/11 04:47:42;;;;;;;;;;;;;;;29.54;37.14;97340.75;5049831;28;1750;-50
2021/07/11 04:50:08;;;;;;;;;;;;;;;29.49;37.22;97333.22;5051937;28;1180;-51
2021/07/11 04:52:33;;;;;;;;;;;;;;;29.43;37.39;97339.13;5046778;28;1941;-50
2021/07/11 04:54:58;;;;;;;;;;;;;;;29.50;37.34;97334.09;5051441;28;1540;-50
2021/07/11 04:57:23;;;;;;;;;;;;;;;29.46;37.24;97338.81;5049616;28;1355;-51
2021/07/11 04:59:49;;;;;;;;;;;;;;;29.48;37.25;97351.00;5052151;28;1207;-50
2021/07/11 05:02:14;;;;;;;;;;;;;;;29.54;37.04;97354.88;5050057;28;1484;-50
2021/07/11 05:04:39;;;;;;;;;;;;;;;29.52;37.04;97358.69;5052171;28;1116;-51
2021/07/11 05:07:04;;;;;;;;;;;;;;;29.54;37.31;97362.03;5049490;28;1599;-51
2021/07/11 05:09:29;;;;;;;;;;;;;;;29.50;37.24;97361.50;5052324;28;1630;-51
2021/07/11 05:11:55;;;;;;;;;;;;;;;29.41;37.27;97362.38;5050961;28;1918;-51
2021/07/11 05:14:20;;;;;;;;;;;;;;;29.44;37.18;97356.75;5051743;28;1116;-51
2021/07/11 05:16:45;;;;;;;;;;;;;;;29.37;37.45;97347.72;5051155;28;1569;-51
2021/07/11 05:19:10;;;;;;;;;;;;;;;29.31;37.64;97351.81;5052877;28;1176;-50
2021/07/11 05:21:35;;;;;;;;;;;;;;;29.41;37.21;97341.94;5048972;28;1547;-51
2021/07/11 05:24:01;;;;;;;;;;;;;;;29.35;37.62;97345.22;5051437;28;1677;-51
2021/07/11 05:26:26;;;;;;;;;;;;;;;29.26;37.79;97347.94;5050288;28;1442;-50
2021/07/11 05:28:51;;;;;;;;;;;;;;;29.34;37.56;97348.00;5051310;28;1113;-51
2021/07/11 05:31:17;;;;;;;;;;;;;;;29.39;37.53;97348.41;5050753;28;1981;-50
2021/07/11 05:33:42;;;;;;;;;;;;;;;29.11;38.02;97345.78;5049520;28;1539;-51
2021/07/11 05:36:08;;;;;;;;;;;;;;;28.95;38.47;97342.94;5049632;28;1591;-51
2021/07/11 05:38:33;;;;;;;;;;;;;;;29.00;38.85;97347.81;5050849;28;1490;-50
2021/07/11 05:40:58;;;;;;;;;;;;;;;29.03;38.39;97339.53;5050231;28;1747;-49
2021/07/11 05:43:23;;;;;;;;;;;;;;;29.14;37.78;97344.63;5050161;28;1297;-50
2021/07/11 05:45:48;;;;;;;;;;;;;;;29.26;37.85;97362.03;5049765;28;1572;-51
2021/07/11 05:48:14;;;;;;;;;;;;;;;29.29;37.74;97360.91;5050743;28;1155;-50
2021/07/11 05:50:39;;;;;;;;;;;;;;;29.38;37.59;97368.81;5050499;28;1309;-49
2021/07/11 05:53:04;;;;;;;;;;;;;;;29.44;37.68;97373.53;5050092;28;1902;-50
2021/07/11 05:55:29;;;;;;;;;;;;;;;29.37;37.82;97383.06;5049652;28;1560;-49
2021/07/11 05:57:55;;;;;;;;;;;;;;;29.26;38.20;97390.44;5052169;28;1360;-51
2021/07/11 06:00:20;;;;;;;;;;;;;;;29.38;37.89;97395.38;5050714;28;1192;-51
2021/07/11 06:02:45;;;;;;;;;;;;;;;29.32;37.98;97393.34;5050037;28;1539;-50
2021/07/11 06:05:10;;;;;;;;;;;;;;;29.21;38.28;97401.47;5053073;28;1242;-50
2021/07/11 06:07:35;;;;;;;;;;;;;;;29.01;38.77;97405.22;5050224;28;1631;-51
2021/07/11 06:10:02;;;;;;;;;;;;;;;28.99;39.04;97402.69;5050195;28;1627;-49
2021/07/11 06:12:27;;;;;;;;;;;;;;;29.24;38.17;97393.22;5033786;28;1966;-51
2021/07/11 06:14:54;;;;;;;;;;;;;;;29.04;38.56;97397.78;5048360;28;1324;-50
2021/07/11 06:17:20;;;;;;;;;;;;;;;28.97;38.85;97402.00;5050882;28;1586;-51
2021/07/11 06:19:45;;;;;;;;;;;;;;;28.99;38.78;97402.69;5049590;28;1363;-50
2021/07/11 06:22:10;;;;;;;;;;;;;;;29.33;37.97;97399.47;5048215;28;1462;-51
2021/07/11 06:24:35;;;;;;;;;;;;;;;29.40;38.02;97408.53;5049419;28;1606;-50
2021/07/11 06:27:01;;;;;;;;;;;;;;;29.33;37.87;97413.59;5047728;28;1563;-49
2021/07/11 06:29:26;;;;;;;;;;;;;;;29.27;38.33;97414.19;5049714;28;1614;-50
2021/07/11 06:31:51;;;;;;;;;;;;;;;29.33;37.98;97416.25;5048605;28;1910;-50
2021/07/11 06:34:16;;;;;;;;;;;;;;;29.40;37.88;97411.19;5048824;28;1140;-50
2021/07/11 06:36:41;;;;;;;;;;;;;;;29.32;37.89;97414.59;5046889;28;1317;-50
2021/07/11 06:39:07;;;;;;;;;;;;;;;29.45;37.87;97416.88;5048136;28;1617;-51
2021/07/11 06:41:32;;;;;;;;;;;;;;;29.27;38.34;97423.97;5046032;28;1390;-51
2021/07/11 06:43:57;;;;;;;;;;;;;;;29.35;37.92;97430.22;5043183;28;1194;-51
2021/07/11 06:46:22;;;;;;;;;;;;;;;29.38;38.17;97437.03;5047796;28;1587;-51
2021/07/11 06:48:48;;;;;;;;;;;;;;;29.36;37.92;97433.69;5048304;28;1586;-50
2021/07/11 06:51:13;;;;;;;;;;;;;;;29.32;38.13;97438.50;5047967;28;1902;-51
2021/07/11 06:53:38;;;;;;;;;;;;;;;29.37;37.90;97446.00;5049260;28;1614;-51
2021/07/11 06:56:04;;;;;;;;;;;;;;;29.34;37.94;97443.66;5047044;28;1654;-50
2021/07/11 06:58:29;;;;;;;;;;;;;;;29.25;38.14;97444.53;5050067;28;1179;-51
2021/07/11 07:00:54;;;;;;;;;;;;;;;29.33;37.91;97440.16;5049195;28;1475;-51
2021/07/11 07:03:19;;;;;;;;;;;;;;;29.45;37.96;97438.13;5050131;28;1315;-51
2021/07/11 07:05:44;;;;;;;;;;;;;;;29.18;38.43;97442.47;5046156;28;1747;-51
2021/07/11 07:08:10;;;;;;;;;;;;;;;29.32;38.13;97450.94;5050222;28;1258;-50
2021/07/11 07:10:37;;;;;;;;;;;;;;;29.32;37.85;97451.78;5047346;28;1633;-50
2021/07/11 07:13:03;;;;;;;;;;;;;;;29.24;38.13;97437.56;5048401;28;1969;-50
2021/07/11 07:15:28;;;;;;;;;;;;;;;29.30;38.01;97452.88;5048281;28;1466;-50
2021/07/11 07:17:53;;;;;;;;;;;;;;;29.32;37.82;97450.94;5048810;28;1060;-51
2021/07/11 07:20:18;;;;;;;;;;;;;;;29.42;37.77;97454.38;5048787;28;1595;-50
2021/07/11 07:22:44;;;;;;;;;;;;;;;29.38;37.85;97458.28;5048949;28;1299;-51
2021/07/11 07:25:10;;;;;;;;;;;;;;;29.33;37.92;97452.59;5048273;28;1540;-51
2021/07/11 07:27:36;;;;;;;;;;;;;;;29.40;37.98;97453.69;5049200;28;1159;-49
2021/07/11 07:30:01;;;;;;;;;;;;;;;29.37;37.83;97468.09;5047247;28;1345;-51
2021/07/11 07:32:26;;;;;;;;;;;;;;;29.46;37.54;97463.69;5048719;28;1906;-51
2021/07/11 07:34:51;;;;;;;;;;;;;;;29.32;37.91;97461.56;5048706;28;1350;-51
2021/07/11 07:37:16;;;;;;;;;;;;;;;29.43;37.58;97469.31;5047525;28;1473;-51
2021/07/11 07:39:42;;;;;;;;;;;;;;;29.40;37.87;97475.78;5048225;28;1560;-51
2021/07/11 07:42:07;;;;;;;;;;;;;;;29.46;37.64;97474.34;5047089;28;1463;-51
2021/07/11 07:44:33;;;;;;;;;;;;;;;29.26;38.28;97470.09;5049255;28;1239;-51
2021/07/11 07:46:58;;;;;;;;;;;;;;;29.35;37.91;97458.59;5046304;28;1559;-50
2021/07/11 07:49:23;;;;;;;;;;;;;;;29.34;37.67;97451.63;5048857;28;1585;-50
2021/07/11 07:51:48;;;;;;;;;;;;;;;29.35;37.92;97446.16;5048079;28;2036;-50
2021/07/11 07:54:14;;;;;;;;;;;;;;;29.40;37.53;97449.22;5048209;28;1621;-50
2021/07/11 07:56:39;;;;;;;;;;;;;;;29.26;38.00;97455.00;5049255;28;1242;-51
2021/07/11 07:59:04;;;;;;;;;;;;;;;29.44;37.76;97455.88;5049898;28;1200;-51
2021/07/11 08:01:29;;;;;;;;;;;;;;;29.28;37.87;97457.50;5045275;28;1457;-50
2021/07/11 08:03:54;;;;;;;;;;;;;;;29.33;37.70;97461.41;5048462;28;1635;-49
2021/07/11 08:06:20;;;;;;;;;;;;;;;29.47;37.61;97462.75;5046186;28;1560;-51
2021/07/11 08:08:45;;;;;;;;;;;;;;;29.37;37.70;97472.56;5047909;28;1553;-51
2021/07/11 08:11:10;;;;;;;;;;;;;;;29.42;37.76;97467.66;5047734;28;1902;-51
2021/07/11 08:13:36;;;;;;;;;;;;;;;29.31;37.64;97468.69;5049102;28;1287;-50
2021/07/11 08:16:01;;;;;;;;;;;;;;;29.44;37.70;97466.50;5051047;28;1328;-50
2021/07/11 08:18:26;;;;;;;;;;;;;;;29.40;37.75;97470.47;5052963;28;1680;-50
2021/07/11 08:20:51;;;;;;;;;;;;;;;29.48;37.36;97475.03;5050622;28;1494;-51
2021/07/11 08:23:16;;;;;;;;;;;;;;;29.40;37.72;97480.25;5052262;28;1304;-51
2021/07/11 08:25:42;;;;;;;;;;;;;;;29.37;38.04;97488.50;5052156;28;1548;-50
2021/07/11 08:28:07;;;;;;;;;;;;;;;29.41;37.79;97485.41;5052850;28;1203;-51
2021/07/11 08:30:32;;;;;;;;;;;;;;;29.43;37.53;97490.56;5051154;28;1373;-51
2021/07/11 08:32:57;;;;;;;;;;;;;;;29.47;37.47;97489.31;5051778;28;2026;-50
2021/07/11 08:35:23;;;;;;;;;;;;;;;29.40;37.71;97496.19;5049745;28;2087;-51
2021/07/11 08:37:48;;;;;;;;;;;;;;;29.35;37.77;97496.63;5052130;28;1422;-51
2021/07/11 08:40:13;;;;;;;;;;;;;;;29.33;37.80;97492.44;5051295;28;1569;-50
2021/07/11 08:42:40;;;;;;;;;;;;;;;29.30;37.84;97488.25;5051934;28;1236;-51
2021/07/11 08:45:05;;;;;;;;;;;;;;;29.27;38.09;97495.69;5052644;28;1160;-51
2021/07/11 08:47:30;;;;;;;;;;;;;;;29.29;37.70;97493.72;5052399;28;1431;-51
2021/07/11 08:49:56;;;;;;;;;;;;;;;29.17;37.99;97499.22;5052428;28;1608;-50
2021/07/11 08:52:21;;;;;;;;;;;;;;;29.35;37.79;97503.75;5052053;28;1937;-51
2021/07/11 08:54:46;;;;;;;;;;;;;;;29.41;37.46;97500.53;5049226;28;1605;-51
2021/07/11 08:57:11;;;;;;;;;;;;;;;29.26;37.83;97508.13;5052796;28;1231;-50
2021/07/11 08:59:37;;;;;;;;;;;;;;;29.43;37.50;97511.84;5051981;28;1230;-51
2021/07/11 09:02:03;;;;;;;;;;;;;;;29.41;37.47;97506.66;5071318;22;1888;-52
2021/07/11 09:04:38;;;;;;;;;;;;;;;29.47;37.65;97515.88;5024260;28;1869;-54
2021/07/11 09:07:05;;;;;;;;;;;;;;;29.38;37.71;97511.41;5024451;28;1545;-53
2021/07/11 09:09:31;;;;;;;;;;;;;;;29.44;37.48;97514.34;5024683;28;1655;-54
2021/07/11 09:12:01;;;;;;;;;;;;;;;29.52;37.35;97503.00;5017812;28;1910;-54
2021/07/11 09:14:26;;;;;;;;;;;;;;;29.43;37.37;97511.84;4992390;28;1036;-54
2021/07/11 09:16:52;;;;;;;;;;;;;;;29.45;37.51;97516.00;5005058;28;1446;-54
2021/07/11 09:19:21;;;;;;;;;;;;;;;29.53;37.44;97517.13;5004256;28;1586;-54
2021/07/11 09:22:05;;;;;;;;;;;;;;;29.32;37.76;97517.34;5001561;28;1293;-55
2021/07/11 09:24:30;;;;;;;;;;;;;;;29.29;37.80;97522.94;5004010;28;1638;-54
2021/07/11 09:27:04;;;;;;;;;;;;;;;29.45;37.42;97523.13;5003739;28;1074;-54
2021/07/11 09:29:29;;;;;;;;;;;;;;;29.46;37.44;97525.66;5002463;28;1173;-52
2021/07/11 09:31:55;;;;;;;;;;;;;;;29.35;37.60;97527.66;5003436;28;1969;-53
2021/07/11 09:34:22;;;;;;;;;;;;;;;29.44;37.35;97519.66;4992365;28;1649;-54
2021/07/11 09:37:03;;;;;;;;;;;;;;;29.33;37.72;97524.31;5003072;28;1043;-54
2021/07/11 09:39:28;;;;;;;;;;;;;;;29.43;37.55;97533.09;5003727;28;1587;-53
2021/07/11 09:41:53;;;;;;;;;;;;;;;29.32;37.69;97530.63;5004477;28;1236;-53
2021/07/11 09:44:18;;;;;;;;;;;;;;;29.46;37.61;97535.44;5000971;28;1248;-54
2021/07/11 09:46:43;;;;;;;;;;;;;;;29.32;37.60;97527.97;5002334;28;1178;-54
2021/07/11 09:49:15;;;;;;;;;;;;;;;29.43;37.68;97525.13;5003150;28;1626;-53
2021/07/11 09:51:40;;;;;;;;;;;;;;;29.37;37.54;97531.00;5004280;28;1906;-54
2021/07/11 09:54:06;;;;;;;;;;;;;;;29.42;37.52;97523.44;5002818;28;1646;-54
2021/07/11 09:56:32;;;;;;;;;;;;;;;29.40;37.39;97522.75;5000590;28;1594;-54
2021/07/11 09:58:57;;;;;;;;;;;;;;;29.39;37.54;97529.91;5005120;28;1189;-54
2021/07/11 10:01:22;;;;;;;;;;;;;;;29.46;37.39;97519.50;5000475;28;1303;-54
2021/07/11 10:03:47;;;;;;;;;;;;;;;29.47;37.55;97515.88;5004489;28;1531;-54
2021/07/11 10:06:13;;;;;;;;;;;;;;;29.47;37.41;97521.19;5002255;28;1579;-53
2021/07/11 10:08:38;;;;;;;;;;;;;;;29.45;37.47;97517.81;5003693;28;1547;-54
2021/07/11 10:11:03;;;;;;;;;;;;;;;29.34;37.78;97518.88;4992660;28;1973;-54
2021/07/11 10:13:28;;;;;;;;;;;;;;;29.42;37.49;97518.13;4992811;28;1380;-55
2021/07/11 10:15:54;;;;;;;;;;;;;;;29.49;37.34;97519.22;4991288;28;999;-53
2021/07/11 10:18:20;;;;;;;;;;;;;;;29.35;37.54;97520.53;5001578;28;1571;-53
2021/07/11 10:20:47;;;;;;;;;;;;;;;29.43;37.62;97525.94;5002956;28;1181;-53
2021/07/11 10:23:42;;;;;;;;;;;;;;;29.34;37.78;97520.69;5002809;28;1369;-55
2021/07/11 10:26:11;;;;;;;;;;;;;;;29.30;37.84;97528.09;4992732;28;1524;-53
2021/07/11 10:28:36;;;;;;;;;;;;;;;29.33;37.75;97529.63;5002189;28;1021;-54
2021/07/11 10:31:03;;;;;;;;;;;;;;;29.34;37.69;97526.84;5003566;28;1993;-53
2021/07/11 10:33:28;;;;;;;;;;;;;;;29.26;37.84;97537.34;5001608;28;1645;-54
2021/07/11 10:36:03;;;;;;;;;;;;;;;29.40;37.57;97531.56;5003576;28;1297;-54
2021/07/11 10:38:29;;;;;;;;;;;;;;;29.34;37.43;97536.63;5003464;28;1248;-53
2021/07/11 10:40:55;;;;;;;;;;;;;;;29.41;37.61;97546.53;5001796;28;1545;-54
2021/07/11 10:43:20;;;;;;;;;;;;;;;29.27;37.76;97546.16;5002351;28;1612;-54
2021/07/11 10:45:46;;;;;;;;;;;;;;;29.41;37.75;97545.69;5001891;28;1192;-53
2021/07/11 10:48:11;;;;;;;;;;;;;;;29.44;37.56;97548.88;5004327;28;1670;-54
2021/07/11 10:50:39;;;;;;;;;;;;;;;29.44;37.27;97543.56;5003131;28;1150;-54
2021/07/11 10:53:14;;;;;;;;;;;;;;;29.43;37.39;97544.56;5000998;28;1906;-54
2021/07/11 10:55:42;;;;;;;;;;;;;;;29.38;37.53;97544.13;5003994;28;1630;-54
2021/07/11 10:58:11;;;;;;;;;;;;;;;29.42;37.61;97540.22;5002753;28;1446;-54
2021/07/11 11:00:36;;;;;;;;;;;;;;;29.27;37.60;97532.88;5003517;28;1181;-53
2021/07/11 11:03:02;;;;;;;;;;;;;;;29.41;37.40;97532.41;5000073;28;1622;-54
2021/07/11 11:05:29;;;;;;;;;;;;;;;29.45;37.36;97536.44;5002391;28;1524;-54
2021/07/11 11:07:55;;;;;;;;;;;;;;;29.38;37.41;97528.19;5002762;28;1332;-54
2021/07/11 11:10:20;;;;;;;;;;;;;;;29.46;37.36;97530.97;5002766;28;1574;-54
2021/07/11 11:12:45;;;;;;;;;;;;;;;29.49;37.33;97535.16;5001143;28;1971;-53
2021/07/11 11:15:15;;;;;;;;;;;;;;;29.44;37.73;97538.25;5002386;28;1584;-54
2021/07/11 11:17:40;;;;;;;;;;;;;;;29.42;37.59;97537.56;5003299;28;1603;-55
2021/07/11 11:20:06;;;;;;;;;;;;;;;29.33;37.59;97537.59;4999901;28;1118;-54
2021/07/11 11:22:31;;;;;;;;;;;;;;;29.43;37.48;97541.06;5001008;28;1451;-53
2021/07/11 11:24:58;;;;;;;;;;;;;;;29.41;37.35;97537.72;5002201;28;1542;-55
2021/07/11 11:27:37;;;;;;;;;;;;;;;29.43;37.43;97541.91;5002561;28;1185;-54
2021/07/11 11:30:08;;;;;;;;;;;;;;;29.40;37.60;97539.53;5001166;28;1237;-54
2021/07/11 11:32:33;;;;;;;;;;;;;;;29.42;37.31;97539.38;5001495;28;1969;-53
2021/07/11 11:34:58;;;;;;;;;;;;;;;29.42;37.49;97542.88;5001737;28;1169;-52
2021/07/11 11:37:23;;;;;;;;;;;;;;;29.44;37.43;97542.72;5000696;28;1618;-55
2021/07/11 11:39:51;;;;;;;;;;;;;;;29.40;37.53;97544.03;5002083;28;1552;-53
2021/07/11 11:42:16;;;;;;;;;;;;;;;29.30;37.70;97537.88;5002262;28;1493;-54
2021/07/11 11:44:41;;;;;;;;;;;;;;;29.36;37.75;97534.66;4990910;28;1304;-54
2021/07/11 11:47:07;;;;;;;;;;;;;;;29.39;37.77;97529.06;5001791;28;1343;-53
2021/07/11 11:49:32;;;;;;;;;;;;;;;29.41;37.45;97522.63;5001300;28;1668;-54
2021/07/11 11:51:58;;;;;;;;;;;;;;;29.46;37.57;97530.13;5003601;28;1906;-53
2021/07/11 11:54:23;;;;;;;;;;;;;;;29.39;37.50;97529.91;5004664;28;1639;-52
2021/07/11 11:56:48;;;;;;;;;;;;;;;29.38;37.39;97530.84;5006823;28;995;-53
2021/07/11 11:59:13;;;;;;;;;;;;;;;29.27;37.85;97531.03;5003610;28;1240;-54
2021/07/11 12:01:38;;;;;;;;;;;;;;;29.35;37.52;97525.84;5004505;28;1510;-54
2021/07/11 12:04:14;;;;;;;;;;;;;;;29.33;37.61;97525.16;5006157;28;1599;-54
2021/07/11 12:06:40;;;;;;;;;;;;;;;29.42;37.44;97523.44;5004933;28;1564;-54
2021/07/11 12:09:06;;;;;;;;;;;;;;;29.35;37.49;97517.03;5006111;28;1570;-54
2021/07/11 12:11:31;;;;;;;;;;;;;;;29.42;37.62;97526.09;5002853;28;1977;-54
2021/07/11 12:14:10;;;;;;;;;;;;;;;29.44;37.43;97521.47;5007166;28;1225;-54
2021/07/11 12:16:35;;;;;;;;;;;;;;;29.26;37.76;97513.44;5004093;28;1150;-53
2021/07/11 12:19:03;;;;;;;;;;;;;;;29.32;37.62;97512.03;5006186;28;1646;-54
2021/07/11 12:21:28;;;;;;;;;;;;;;;29.29;37.64;97512.31;5006587;28;1450;-53
2021/07/11 12:24:04;;;;;;;;;;;;;;;29.22;37.98;97513.88;5005522;28;1579;-54
2021/07/11 12:26:30;;;;;;;;;;;;;;;29.29;37.81;97518.44;5004513;28;1363;-53
2021/07/11 12:28:55;;;;;;;;;;;;;;;29.30;37.79;97508.66;5005531;28;1114;-53
2021/07/11 12:31:21;;;;;;;;;;;;;;;29.37;37.68;97515.06;5002593;28;1965;-54
2021/07/11 12:33:46;;;;;;;;;;;;;;;29.40;37.47;97520.09;5005911;28;1623;-54
2021/07/11 12:36:11;;;;;;;;;;;;;;;29.32;37.72;97509.38;5003510;28;1324;-52
2021/07/11 12:38:40;;;;;;;;;;;;;;;29.29;37.82;97509.66;5004983;28;1245;-53
2021/07/11 12:41:09;;;;;;;;;;;;;;;29.39;37.57;97506.00;5005666;28;1418;-54
2021/07/11 12:43:51;;;;;;;;;;;;;;;29.29;37.51;97496.38;5005498;28;1251;-53
2021/07/11 12:46:17;;;;;;;;;;;;;;;29.30;37.63;97506.00;5005028;28;1193;-52
2021/07/11 12:48:46;;;;;;;;;;;;;;;29.26;37.71;97504.63;5005062;28;1567;-53
2021/07/11 12:51:16;;;;;;;;;;;;;;;29.32;37.66;97502.25;5005025;28;1910;-54